Time;durP1;ratioP1;P1;durP2;ratioP2;P2;SDS_P1;SDS_P2;PMS_P1;PMS_P2;Temp;Humidity;BMP_temperature;BMP_pressure;BME280_temperature;BME280_humidity;BME280_pressure;Samples;Min_cycle;Max_cycle;Signal;HPM_P1;HPM_P2
2022/01/09 00:00:35;;;;;;;7.33;4.43;;;10.80;99.90;;;;;;5021586;28;20616;-67
2022/01/09 00:03:03;;;;;;;9.33;5.00;;;10.80;99.90;;;;;;5025604;28;20210;-64
2022/01/09 00:05:30;;;;;;;11.70;4.90;;;10.90;99.90;;;;;;5052063;28;20700;-66
2022/01/09 00:07:57;;;;;;;7.47;5.07;;;10.90;99.90;;;;;;5046289;28;20727;-65
2022/01/09 00:10:23;;;;;;;9.03;4.90;;;10.90;99.90;;;;;;5056995;28;20241;-64
2022/01/09 00:12:50;;;;;;;9.00;4.57;;;10.90;99.90;;;;;;5027740;28;20191;-65
2022/01/09 00:15:17;;;;;;;5.93;4.53;;;10.90;99.90;;;;;;5024707;28;20230;-65
2022/01/09 00:17:44;;;;;;;8.73;4.60;;;10.90;99.90;;;;;;5035207;28;20175;-64
2022/01/09 00:20:12;;;;;;;7.90;5.10;;;10.90;99.90;;;;;;5040327;28;20185;-65
2022/01/09 00:22:47;;;;;;;8.00;4.70;;;11.00;99.90;;;;;;5023940;28;20193;-65
2022/01/09 00:25:17;;;;;;;11.33;5.30;;;10.90;99.90;;;;;;5025124;28;20190;-66
2022/01/09 00:27:45;;;;;;;7.13;4.63;;;10.80;99.90;;;;;;5046203;28;20211;-65
2022/01/09 00:30:15;;;;;;;7.57;5.00;;;10.70;99.90;;;;;;5028917;28;20270;-65
2022/01/09 00:32:42;;;;;;;9.63;4.93;;;10.70;99.90;;;;;;5051187;28;20195;-66
2022/01/09 00:35:09;;;;;;;10.67;4.70;;;10.60;99.90;;;;;;5058223;28;20207;-66
2022/01/09 00:37:36;;;;;;;9.40;4.30;;;10.60;99.90;;;;;;5033999;28;20187;-66
2022/01/09 00:40:06;;;;;;;5.60;4.30;;;10.60;99.90;;;;;;5044490;28;20698;-66
2022/01/09 00:42:33;;;;;;;13.73;4.60;;;10.70;99.90;;;;;;5056964;28;20185;-66
2022/01/09 00:45:00;;;;;;;9.53;4.90;;;10.70;99.90;;;;;;5026870;28;20462;-66
2022/01/09 00:47:26;;;;;;;6.97;4.37;;;10.60;99.90;;;;;;5022439;28;20198;-66
2022/01/09 00:49:52;;;;;;;9.70;4.07;;;10.70;99.90;;;;;;5054833;28;20930;-66
2022/01/09 00:52:18;;;;;;;8.23;4.07;;;10.70;99.90;;;;;;5026055;28;20556;-66
2022/01/09 00:54:45;;;;;;;7.33;3.77;;;10.70;99.90;;;;;;5027828;28;20286;-66
2022/01/09 00:57:11;;;;;;;6.37;4.00;;;10.70;99.90;;;;;;5037518;28;20187;-66
2022/01/09 00:59:37;;;;;;;9.70;4.30;;;10.70;99.90;;;;;;5042765;28;20648;-65
2022/01/09 01:02:04;;;;;;;7.93;4.17;;;10.70;99.90;;;;;;5046509;28;20877;-65
2022/01/09 01:04:31;;;;;;;7.47;4.00;;;10.70;99.90;;;;;;5018280;28;20196;-66
2022/01/09 01:06:57;;;;;;;8.37;4.07;;;10.70;99.90;;;;;;5023421;28;20667;-65
2022/01/09 01:09:25;;;;;;;6.00;4.20;;;10.60;99.90;;;;;;5018087;28;20204;-65
2022/01/09 01:11:52;;;;;;;6.63;3.43;;;10.60;99.90;;;;;;5044261;28;20201;-65
2022/01/09 01:14:22;;;;;;;6.27;3.97;;;10.60;99.90;;;;;;5022205;28;20648;-65
2022/01/09 01:16:49;;;;;;;6.97;4.10;;;10.50;99.90;;;;;;5028405;28;20191;-65
2022/01/09 01:19:17;;;;;;;6.07;3.77;;;10.60;99.90;;;;;;5034555;28;20333;-65
2022/01/09 01:21:43;;;;;;;5.27;3.50;;;10.50;99.90;;;;;;5027918;28;20184;-65
2022/01/09 01:24:09;;;;;;;6.67;3.77;;;10.50;99.90;;;;;;5051905;28;20179;-63
2022/01/09 01:26:36;;;;;;;9.57;3.90;;;10.50;99.90;;;;;;5056275;28;20703;-64
2022/01/09 01:29:02;;;;;;;6.83;3.90;;;10.50;99.90;;;;;;5035426;28;20190;-67
2022/01/09 01:31:29;;;;;;;6.43;4.40;;;10.50;99.90;;;;;;5041157;28;20670;-66
2022/01/09 01:33:55;;;;;;;5.27;3.90;;;10.40;99.90;;;;;;5052423;28;20221;-66
2022/01/09 01:36:21;;;;;;;8.00;3.50;;;10.40;99.90;;;;;;5043161;28;20190;-66
2022/01/09 01:38:48;;;;;;;7.57;3.83;;;10.40;99.90;;;;;;5047229;28;20278;-66
2022/01/09 01:41:14;;;;;;;5.67;3.70;;;10.40;99.90;;;;;;5041102;28;20295;-66
2022/01/09 01:43:41;;;;;;;4.43;3.50;;;10.40;99.90;;;;;;5038946;28;20514;-66
2022/01/09 01:46:07;;;;;;;6.23;3.60;;;10.40;99.90;;;;;;5032194;28;20253;-66
2022/01/09 01:48:33;;;;;;;9.73;3.47;;;10.40;99.90;;;;;;5043587;28;20179;-66
2022/01/09 01:51:00;;;;;;;5.37;3.47;;;10.50;99.90;;;;;;5059443;28;20191;-66
2022/01/09 01:53:26;;;;;;;11.47;3.73;;;10.50;99.90;;;;;;5052290;28;20183;-66
2022/01/09 01:55:55;;;;;;;7.37;3.47;;;10.40;99.90;;;;;;5034323;28;20710;-67
2022/01/09 01:58:26;;;;;;;12.33;3.70;;;10.30;99.90;;;;;;5028041;28;20232;-67
2022/01/09 02:00:53;;;;;;;8.73;3.60;;;10.30;99.90;;;;;;5027378;28;20476;-67
2022/01/09 02:03:19;;;;;;;5.50;3.60;;;10.30;99.90;;;;;;5045866;28;20301;-67
2022/01/09 02:05:46;;;;;;;5.80;3.57;;;10.30;99.90;;;;;;5021877;28;20199;-67
2022/01/09 02:08:13;;;;;;;6.43;3.90;;;10.40;99.90;;;;;;5032922;28;20273;-67
2022/01/09 02:10:42;;;;;;;4.93;3.43;;;10.40;99.90;;;;;;5030040;28;20179;-67
2022/01/09 02:13:09;;;;;;;8.57;4.00;;;10.40;99.90;;;;;;5043514;28;20205;-67
2022/01/09 02:15:45;;;;;;;5.83;3.10;;;10.40;99.90;;;;;;5043154;28;20207;-67
2022/01/09 02:18:20;;;;;;;5.57;3.00;;;10.40;99.90;;;;;;5054675;28;20178;-67
2022/01/09 02:20:49;;;;;;;5.63;3.00;;;10.40;99.90;;;;;;5042300;28;20179;-67
2022/01/09 02:23:17;;;;;;;4.47;2.97;;;10.40;99.90;;;;;;5052599;28;20183;-67
2022/01/09 02:25:46;;;;;;;6.00;3.20;;;10.30;99.90;;;;;;5043348;28;20622;-67
2022/01/09 02:28:16;;;;;;;4.63;2.70;;;10.30;99.90;;;;;;5040193;28;20190;-67
2022/01/09 02:30:44;;;;;;;4.07;3.10;;;10.30;99.90;;;;;;5060321;28;20186;-66
2022/01/09 02:33:17;;;;;;;7.03;3.07;;;10.40;99.90;;;;;;5039925;28;20784;-66
2022/01/09 02:35:43;;;;;;;7.83;2.83;;;10.40;99.90;;;;;;5021137;28;20219;-66
2022/01/09 02:38:09;;;;;;;4.43;2.80;;;10.40;99.90;;;;;;5049941;28;20199;-66
2022/01/09 02:40:36;;;;;;;7.27;2.97;;;10.30;99.90;;;;;;5056859;28;20795;-66
2022/01/09 02:43:03;;;;;;;4.50;2.97;;;10.20;99.90;;;;;;5027616;28;20654;-66
2022/01/09 02:45:30;;;;;;;5.70;3.00;;;10.20;99.90;;;;;;5057831;28;20211;-66
2022/01/09 02:47:59;;;;;;;5.37;3.20;;;10.20;99.90;;;;;;5006661;28;20253;-66
2022/01/09 02:53:13;;;;;;;5.47;2.73;;;10.20;99.90;;;;;;5025848;28;20270;-67
2022/01/09 02:55:39;;;;;;;3.80;2.53;;;10.30;99.90;;;;;;5039340;28;20211;-66
2022/01/09 02:58:06;;;;;;;3.90;2.73;;;10.40;99.90;;;;;;5043174;28;20202;-66
2022/01/09 03:00:38;;;;;;;3.73;2.80;;;10.50;99.90;;;;;;5031907;28;20191;-67
2022/01/09 03:03:05;;;;;;;7.13;3.07;;;10.50;99.90;;;;;;5050720;28;20206;-66
2022/01/09 03:05:32;;;;;;;5.10;2.90;;;10.60;99.90;;;;;;5049967;28;20183;-66
2022/01/09 03:07:59;;;;;;;6.40;2.77;;;10.70;99.90;;;;;;5034469;28;20246;-66
2022/01/09 03:10:26;;;;;;;3.77;2.47;;;10.70;99.90;;;;;;5031116;28;20189;-66
2022/01/09 03:12:58;;;;;;;4.87;2.57;;;10.70;99.90;;;;;;5025286;28;20310;-66
2022/01/09 03:15:25;;;;;;;5.13;2.53;;;10.70;99.90;;;;;;5037575;28;20596;-67
2022/01/09 03:17:53;;;;;;;4.67;2.40;;;10.60;99.90;;;;;;5039296;28;20191;-67
2022/01/09 03:20:26;;;;;;;5.10;3.00;;;10.60;99.90;;;;;;5043338;28;20258;-66
2022/01/09 03:22:55;;;;;;;4.27;2.67;;;10.50;99.90;;;;;;5032859;28;20187;-66
2022/01/09 03:25:22;;;;;;;4.90;2.60;;;10.40;99.90;;;;;;5055436;28;20179;-66
2022/01/09 03:27:49;;;;;;;3.80;2.50;;;10.30;99.90;;;;;;5060264;28;20186;-66
2022/01/09 03:30:19;;;;;;;3.90;2.70;;;10.10;99.90;;;;;;5047656;28;20568;-66
2022/01/09 03:32:48;;;;;;;3.57;2.47;;;10.20;99.90;;;;;;5055029;28;20191;-66
2022/01/09 03:35:18;;;;;;;3.90;2.00;;;10.10;99.90;;;;;;5047891;28;20563;-66
2022/01/09 03:37:47;;;;;;;5.17;2.60;;;10.20;99.90;;;;;;5033983;28;20559;-66
2022/01/09 03:40:21;;;;;;;4.70;2.20;;;10.10;99.90;;;;;;5006760;28;20199;-65
2022/01/09 03:42:51;;;;;;;5.57;2.63;;;10.10;99.90;;;;;;5038024;28;20198;-66
2022/01/09 03:45:19;;;;;;;3.10;2.40;;;10.10;99.90;;;;;;5049019;28;20186;-66
2022/01/09 03:47:46;;;;;;;4.50;2.60;;;10.10;99.90;;;;;;5024606;28;20187;-67
2022/01/09 03:50:14;;;;;;;5.20;2.40;;;10.10;99.90;;;;;;5024094;28;20524;-66
2022/01/09 03:52:47;;;;;;;5.07;2.63;;;10.10;99.90;;;;;;5059987;28;20982;-67
2022/01/09 03:55:14;;;;;;;7.67;3.10;;;10.00;99.90;;;;;;5016143;28;20219;-66
2022/01/09 03:57:41;;;;;;;4.83;2.87;;;9.90;99.90;;;;;;5054940;28;20183;-66
2022/01/09 04:00:14;;;;;;;3.77;2.27;;;9.80;99.90;;;;;;5049245;28;20316;-66
2022/01/09 04:02:42;;;;;;;3.80;2.80;;;9.70;99.90;;;;;;5055593;28;20936;-66
2022/01/09 04:05:09;;;;;;;3.70;2.80;;;9.60;99.90;;;;;;5028634;28;21602;-65
2022/01/09 04:07:38;;;;;;;4.43;2.60;;;9.60;99.90;;;;;;5047159;28;20221;-65
2022/01/09 04:10:05;;;;;;;4.30;2.83;;;9.50;99.90;;;;;;5025463;28;20179;-64
2022/01/09 04:12:35;;;;;;;3.20;2.30;;;9.50;99.90;;;;;;5035784;28;20196;-64
2022/01/09 04:15:07;;;;;;;6.93;2.70;;;9.50;99.90;;;;;;5020041;28;20249;-64
2022/01/09 04:17:43;;;;;;;4.53;2.60;;;9.50;99.90;;;;;;5020951;28;20187;-64
2022/01/09 04:20:10;;;;;;;4.23;2.80;;;9.50;99.90;;;;;;5040662;28;20183;-64
2022/01/09 04:22:37;;;;;;;5.07;3.20;;;9.50;99.90;;;;;;5040491;28;20274;-63
2022/01/09 04:25:05;;;;;;;5.73;3.07;;;9.50;99.90;;;;;;5056360;28;20179;-64
2022/01/09 04:27:32;;;;;;;4.07;3.00;;;9.60;99.90;;;;;;5029185;28;20565;-64
2022/01/09 04:29:58;;;;;;;4.93;3.23;;;9.60;99.90;;;;;;5050111;28;20188;-64
2022/01/09 04:32:25;;;;;;;5.17;3.13;;;9.70;99.90;;;;;;5037631;28;20324;-64
2022/01/09 04:34:51;;;;;;;5.33;3.40;;;9.70;99.90;;;;;;5022743;28;20241;-67
2022/01/09 04:37:18;;;;;;;4.93;3.30;;;9.70;99.90;;;;;;5028407;28;20636;-67
2022/01/09 04:39:47;;;;;;;6.50;3.23;;;9.70;99.90;;;;;;5020895;28;20257;-67
2022/01/09 04:42:14;;;;;;;7.10;3.90;;;9.70;99.90;;;;;;5000059;28;20258;-66
2022/01/09 04:44:40;;;;;;;4.80;4.03;;;9.70;99.90;;;;;;5040535;28;20189;-66
2022/01/09 04:47:11;;;;;;;5.73;3.90;;;9.60;99.90;;;;;;5028415;28;20188;-69
2022/01/09 04:49:41;;;;;;;8.93;4.30;;;9.50;99.90;;;;;;5022234;28;20704;-70
2022/01/09 04:52:12;;;;;;;7.83;4.20;;;9.50;99.90;;;;;;5024363;28;20641;-69
2022/01/09 04:54:39;;;;;;;7.13;4.37;;;9.50;99.90;;;;;;5020175;28;20212;-69
2022/01/09 04:57:05;;;;;;;6.07;3.67;;;9.50;99.90;;;;;;5014665;28;20192;-69
2022/01/09 04:59:32;;;;;;;5.43;3.50;;;9.40;99.90;;;;;;5042148;28;20187;-70
2022/01/09 05:01:58;;;;;;;6.83;4.00;;;9.50;99.90;;;;;;5045636;28;20218;-69
2022/01/09 05:04:24;;;;;;;6.13;3.47;;;9.50;99.90;;;;;;5052728;28;20290;-71
2022/01/09 05:06:51;;;;;;;5.37;3.90;;;9.40;99.90;;;;;;5034410;28;20187;-71
2022/01/09 05:09:20;;;;;;;5.83;3.43;;;9.50;99.90;;;;;;5034467;28;20505;-71
2022/01/09 05:11:46;;;;;;;5.53;3.10;;;9.60;99.90;;;;;;5031312;28;20539;-69
2022/01/09 05:14:12;;;;;;;6.53;3.20;;;9.60;99.90;;;;;;5024060;28;20568;-69
2022/01/09 05:16:42;;;;;;;6.53;3.03;;;9.70;99.90;;;;;;5035974;28;20175;-71
2022/01/09 05:19:17;;;;;;;6.80;3.17;;;9.70;99.90;;;;;;5037532;28;20229;-71
2022/01/09 05:21:44;;;;;;;6.57;3.20;;;9.80;99.90;;;;;;5054811;28;20198;-69
2022/01/09 05:24:11;;;;;;;4.20;3.10;;;9.80;99.90;;;;;;5020170;28;20187;-69
2022/01/09 05:26:37;;;;;;;5.90;3.20;;;9.80;99.90;;;;;;5043997;28;20186;-69
2022/01/09 05:29:03;;;;;;;6.03;3.87;;;9.70;99.90;;;;;;5043825;28;20192;-70
2022/01/09 05:31:30;;;;;;;9.07;3.20;;;9.60;99.90;;;;;;5046190;28;20195;-70
2022/01/09 05:33:56;;;;;;;5.27;3.57;;;9.70;99.90;;;;;;5055022;28;20184;-69
2022/01/09 05:36:22;;;;;;;4.30;2.83;;;9.60;99.90;;;;;;5052260;28;20522;-69
2022/01/09 05:38:49;;;;;;;6.00;3.13;;;9.60;99.90;;;;;;5037263;28;20687;-69
2022/01/09 05:41:15;;;;;;;5.10;3.00;;;9.60;99.90;;;;;;5037704;28;20183;-70
2022/01/09 05:43:41;;;;;;;4.67;3.00;;;9.70;99.90;;;;;;5035637;28;20523;-70
2022/01/09 05:46:08;;;;;;;4.20;2.93;;;9.70;99.90;;;;;;5044271;28;20183;-67
2022/01/09 05:48:34;;;;;;;5.13;3.10;;;9.70;99.90;;;;;;5032265;28;20261;-67
2022/01/09 05:51:00;;;;;;;4.20;3.20;;;9.80;99.90;;;;;;5055719;28;20195;-66
2022/01/09 05:53:27;;;;;;;5.60;2.80;;;9.80;99.90;;;;;;5035032;28;20277;-66
2022/01/09 05:55:53;;;;;;;4.57;2.83;;;9.80;99.90;;;;;;5029836;28;20702;-66
2022/01/09 05:58:19;;;;;;;6.03;3.10;;;9.80;99.90;;;;;;5030298;28;20189;-63
2022/01/09 06:00:46;;;;;;;5.37;2.97;;;9.80;99.90;;;;;;5053797;28;20311;-66
2022/01/09 06:03:12;;;;;;;7.87;3.23;;;9.90;99.90;;;;;;5035678;28;20199;-64
2022/01/09 06:05:38;;;;;;;3.83;2.90;;;9.90;99.90;;;;;;5021513;28;20180;-65
2022/01/09 06:08:05;;;;;;;6.23;2.80;;;10.00;99.90;;;;;;5031560;28;20180;-65
2022/01/09 06:10:31;;;;;;;5.07;2.73;;;10.00;99.90;;;;;;5034213;28;20241;-66
2022/01/09 06:12:57;;;;;;;4.30;2.27;;;10.10;99.90;;;;;;5041162;28;20202;-64
2022/01/09 06:15:24;;;;;;;4.97;2.23;;;10.20;99.90;;;;;;5040047;28;20218;-64
2022/01/09 06:17:50;;;;;;;3.80;2.37;;;10.20;99.90;;;;;;5031764;28;20254;-65
2022/01/09 06:20:17;;;;;;;4.43;2.30;;;10.30;99.90;;;;;;5057150;28;20187;-67
2022/01/09 06:22:45;;;;;;;3.27;2.27;;;10.30;99.90;;;;;;5058399;28;20748;-66
2022/01/09 06:25:12;;;;;;;6.17;2.57;;;10.40;99.90;;;;;;5044503;28;20193;-66
2022/01/09 06:27:39;;;;;;;3.77;2.20;;;10.40;99.90;;;;;;5043577;28;20218;-64
2022/01/09 06:30:08;;;;;;;4.83;2.40;;;10.40;99.90;;;;;;5040596;28;20187;-67
2022/01/09 06:32:35;;;;;;;3.87;2.60;;;10.40;99.90;;;;;;5056256;28;20191;-66
2022/01/09 06:35:02;;;;;;;6.37;3.00;;;10.40;99.90;;;;;;5023730;28;20298;-66
2022/01/09 06:37:29;;;;;;;5.00;2.90;;;10.50;99.90;;;;;;5032162;28;20270;-64
2022/01/09 06:39:55;;;;;;;5.33;2.90;;;10.50;99.90;;;;;;5032982;28;20172;-66
2022/01/09 06:42:21;;;;;;;4.63;3.37;;;10.60;99.90;;;;;;5034591;28;20186;-66
2022/01/09 06:44:47;;;;;;;7.33;3.67;;;10.70;99.90;;;;;;5034239;28;20203;-66
2022/01/09 06:47:14;;;;;;;3.97;3.40;;;10.70;99.90;;;;;;5048048;28;20852;-66
2022/01/09 06:49:40;;;;;;;4.20;3.33;;;10.70;99.90;;;;;;5038471;28;20187;-65
2022/01/09 06:52:07;;;;;;;6.47;3.70;;;10.70;99.90;;;;;;5052341;28;20283;-66
2022/01/09 06:54:33;;;;;;;8.03;3.70;;;10.80;99.90;;;;;;5004666;28;20381;-68
2022/01/09 06:57:00;;;;;;;6.63;4.27;;;10.80;99.90;;;;;;5030552;28;20227;-68
2022/01/09 06:59:27;;;;;;;8.03;4.30;;;10.90;99.90;;;;;;5032577;28;20262;-66
2022/01/09 07:01:53;;;;;;;5.60;4.10;;;11.00;99.90;;;;;;5031083;28;20191;-68
2022/01/09 07:04:19;;;;;;;6.53;3.97;;;11.00;99.90;;;;;;5025347;28;20225;-68
2022/01/09 07:06:46;;;;;;;6.20;3.73;;;11.10;99.90;;;;;;5037729;28;20818;-68
2022/01/09 07:09:12;;;;;;;5.47;3.33;;;11.10;99.90;;;;;;5042340;28;20999;-69
2022/01/09 07:11:39;;;;;;;7.17;3.70;;;11.20;99.90;;;;;;5052117;28;20675;-68
2022/01/09 07:14:06;;;;;;;4.63;3.40;;;11.30;99.90;;;;;;5036723;28;20192;-69
2022/01/09 07:16:33;;;;;;;5.30;3.33;;;11.30;99.90;;;;;;5032174;28;20294;-69
2022/01/09 07:19:00;;;;;;;6.57;3.70;;;11.40;99.90;;;;;;5024764;28;20198;-69
2022/01/09 07:21:26;;;;;;;5.13;3.40;;;11.70;99.90;;;;;;5038817;28;20587;-69
2022/01/09 07:23:53;;;;;;;8.07;3.30;;;11.70;99.90;;;;;;5027412;28;20195;-70
2022/01/09 07:26:19;;;;;;;7.60;3.50;;;11.60;99.90;;;;;;5031470;28;20195;-70
2022/01/09 07:28:45;;;;;;;6.47;3.40;;;11.60;99.90;;;;;;5027842;28;20648;-68
2022/01/09 07:31:12;;;;;;;10.03;3.80;;;11.60;99.90;;;;;;5060648;28;20191;-67
2022/01/09 07:33:38;;;;;;;4.20;3.20;;;11.60;99.90;;;;;;5031121;28;20191;-67
2022/01/09 07:36:05;;;;;;;6.77;4.13;;;11.60;99.90;;;;;;5039760;28;20654;-67
2022/01/09 07:38:31;;;;;;;12.50;5.43;;;11.70;99.90;;;;;;5031378;28;20361;-65
2022/01/09 07:40:58;;;;;;;11.40;5.60;;;12.10;99.90;;;;;;5031959;28;20218;-68
2022/01/09 07:43:24;;;;;;;9.43;5.90;;;12.40;99.90;;;;;;5028658;28;20193;-68
2022/01/09 07:45:51;;;;;;;11.10;6.20;;;12.20;99.90;;;;;;5040658;28;20209;-68
2022/01/09 07:48:17;;;;;;;13.93;6.90;;;12.00;99.90;;;;;;5029168;28;20284;-70
2022/01/09 07:50:43;;;;;;;11.93;6.87;;;11.90;99.90;;;;;;5054775;28;20206;-65
2022/01/09 07:53:10;;;;;;;13.40;7.17;;;11.90;99.90;;;;;;5004939;28;20207;-65
2022/01/09 07:55:37;;;;;;;15.53;7.40;;;11.90;99.90;;;;;;5045092;28;20240;-68
2022/01/09 07:58:03;;;;;;;10.53;6.23;;;12.00;99.90;;;;;;5057319;28;20190;-65
2022/01/09 08:00:30;;;;;;;10.57;6.77;;;12.00;99.90;;;;;;5036780;28;20227;-65
2022/01/09 08:02:56;;;;;;;15.13;6.90;;;12.10;99.90;;;;;;5037389;28;20209;-65
2022/01/09 08:05:22;;;;;;;10.80;5.90;;;12.20;99.90;;;;;;5037878;28;20234;-66
2022/01/09 08:07:50;;;;;;;8.30;6.03;;;12.30;99.90;;;;;;5051720;28;20274;-66
2022/01/09 08:10:17;;;;;;;9.30;6.23;;;12.40;99.90;;;;;;5004984;28;20203;-67
2022/01/09 08:12:43;;;;;;;10.60;6.83;;;12.50;99.90;;;;;;5024693;28;20286;-67
2022/01/09 08:15:11;;;;;;;12.93;7.07;;;12.60;99.90;;;;;;5037122;28;20215;-66
2022/01/09 08:17:37;;;;;;;9.40;6.37;;;12.70;99.90;;;;;;5028810;28;20274;-67
2022/01/09 08:20:04;;;;;;;9.67;6.60;;;12.80;99.90;;;;;;5061111;28;20636;-66
2022/01/09 08:22:32;;;;;;;16.30;6.50;;;12.90;99.90;;;;;;5024937;28;20187;-66
2022/01/09 08:24:59;;;;;;;10.67;6.77;;;12.90;99.90;;;;;;5034861;28;20195;-67
2022/01/09 08:27:25;;;;;;;10.97;7.30;;;13.00;99.90;;;;;;5026647;28;20191;-67
2022/01/09 08:29:52;;;;;;;10.47;7.37;;;13.00;99.90;;;;;;5039503;28;20707;-67
2022/01/09 08:32:19;;;;;;;13.07;7.53;;;13.10;99.90;;;;;;5032895;28;20249;-67
2022/01/09 08:34:46;;;;;;;13.97;7.97;;;13.20;99.90;;;;;;5044157;28;20536;-65
2022/01/09 08:37:12;;;;;;;12.43;8.13;;;13.20;99.90;;;;;;5026338;28;20249;-67
2022/01/09 08:39:44;;;;;;;10.43;8.20;;;13.30;99.90;;;;;;5028488;28;20191;-68
2022/01/09 08:42:12;;;;;;;12.33;7.60;;;13.30;99.90;;;;;;5028694;28;20188;-68
2022/01/09 08:44:45;;;;;;;13.77;8.03;;;13.40;99.90;;;;;;5031085;28;20675;-67
2022/01/09 08:47:12;;;;;;;13.90;7.37;;;13.50;99.90;;;;;;5031590;28;20732;-66
2022/01/09 08:49:39;;;;;;;9.93;7.77;;;13.60;99.90;;;;;;5022616;28;20198;-66
2022/01/09 08:52:06;;;;;;;11.17;7.50;;;13.60;99.90;;;;;;5025852;28;20194;-68
2022/01/09 08:54:32;;;;;;;10.93;7.60;;;13.80;99.90;;;;;;5021958;28;20932;-70
2022/01/09 08:56:59;;;;;;;12.73;8.10;;;13.90;99.90;;;;;;5026686;28;20242;-68
2022/01/09 08:59:26;;;;;;;12.10;7.93;;;13.90;99.90;;;;;;5027360;28;20486;-69
2022/01/09 09:01:54;;;;;;;13.53;8.00;;;14.00;99.90;;;;;;5017433;28;20190;-71
2022/01/09 09:04:20;;;;;;;16.33;7.77;;;14.00;99.90;;;;;;5031620;28;20195;-70
2022/01/09 09:06:47;;;;;;;11.87;7.03;;;14.10;99.90;;;;;;5044196;28;20195;-70
2022/01/09 09:09:13;;;;;;;16.80;9.03;;;14.10;99.90;;;;;;5015553;28;20199;-71
2022/01/09 09:11:41;;;;;;;11.20;8.07;;;14.30;99.90;;;;;;5029075;28;20191;-70
2022/01/09 09:14:08;;;;;;;12.80;7.53;;;14.40;99.90;;;;;;5035201;28;20244;-71
2022/01/09 09:16:34;;;;;;;15.53;7.33;;;14.40;99.90;;;;;;5049131;28;20195;-70
2022/01/09 09:19:01;;;;;;;13.13;7.13;;;14.50;99.90;;;;;;5019714;28;20199;-70
2022/01/09 09:21:27;;;;;;;12.20;7.27;;;14.70;99.90;;;;;;5042400;28;20184;-70
2022/01/09 09:23:54;;;;;;;11.03;5.90;;;14.70;99.90;;;;;;5048224;28;20188;-70
2022/01/09 09:26:21;;;;;;;13.43;6.60;;;14.80;99.90;;;;;;5035945;28;20195;-70
2022/01/09 09:28:48;;;;;;;9.97;6.53;;;14.80;99.90;;;;;;5045093;28;20235;-69
2022/01/09 09:31:14;;;;;;;11.47;6.40;;;14.80;99.90;;;;;;5050597;28;20195;-70
2022/01/09 09:33:40;;;;;;;14.73;6.20;;;14.80;99.90;;;;;;5028515;28;20190;-69
2022/01/09 09:36:07;;;;;;;11.77;6.67;;;15.00;99.90;;;;;;5048498;28;20207;-69
2022/01/09 09:38:33;;;;;;;12.90;6.00;;;15.00;99.90;;;;;;5039840;28;20290;-70
2022/01/09 09:41:00;;;;;;;11.03;5.93;;;15.10;99.90;;;;;;5029836;28;20226;-70
2022/01/09 09:43:26;;;;;;;8.27;5.60;;;15.20;99.90;;;;;;5042775;28;20192;-70
2022/01/09 09:45:53;;;;;;;8.67;6.23;;;15.30;99.90;;;;;;5008749;28;20234;-70
2022/01/09 09:48:20;;;;;;;12.40;5.37;;;15.30;99.90;;;;;;5017005;28;20198;-70
2022/01/09 09:50:46;;;;;;;7.50;4.73;;;15.40;99.90;;;;;;5028048;28;20207;-69
2022/01/09 09:53:13;;;;;;;9.10;5.63;;;15.40;99.90;;;;;;5043870;28;20205;-70
2022/01/09 09:55:48;;;;;;;7.80;4.80;;;15.50;99.90;;;;;;5039976;28;20219;-70
2022/01/09 09:58:15;;;;;;;16.50;5.50;;;15.60;99.90;;;;;;5035640;28;20195;-70
2022/01/09 10:00:43;;;;;;;10.23;5.13;;;15.50;99.90;;;;;;5030372;28;20191;-70
2022/01/09 10:03:09;;;;;;;8.40;5.53;;;15.50;99.90;;;;;;5030064;28;20211;-70
2022/01/09 10:05:39;;;;;;;5.87;4.50;;;15.60;99.90;;;;;;5051409;28;20253;-70
2022/01/09 10:08:15;;;;;;;5.17;4.13;;;15.60;99.90;;;;;;5041203;28;20241;-70
2022/01/09 10:10:42;;;;;;;7.60;4.37;;;15.70;99.90;;;;;;5014608;28;20226;-69
2022/01/09 10:13:14;;;;;;;11.20;4.83;;;15.70;99.90;;;;;;5054978;28;20242;-69
2022/01/09 10:15:58;;;;;;;8.23;5.10;;;15.70;99.90;;;;;;5033326;28;20681;-70
2022/01/09 10:18:46;;;;;;;7.90;5.10;;;15.80;99.90;;;;;;5012811;28;20195;-70
2022/01/09 10:21:26;;;;;;;8.37;5.40;;;15.90;99.90;;;;;;5031431;28;20199;-70
2022/01/09 10:24:12;;;;;;;9.50;5.30;;;16.00;99.90;;;;;;5013966;28;20256;-69
2022/01/09 10:26:49;;;;;;;10.57;5.33;;;16.10;99.90;;;;;;5034995;28;20203;-70
2022/01/09 10:29:19;;;;;;;7.67;5.30;;;16.10;99.90;;;;;;5052312;28;20187;-70
2022/01/09 10:31:52;;;;;;;8.50;5.23;;;16.30;99.90;;;;;;5038943;28;20718;-70
2022/01/09 10:34:19;;;;;;;8.43;6.20;;;16.30;99.90;;;;;;5012276;28;20685;-70
2022/01/09 10:36:51;;;;;;;7.60;5.83;;;16.40;99.90;;;;;;5038718;28;20244;-70
2022/01/09 10:39:41;;;;;;;11.40;5.90;;;16.50;99.90;;;;;;5047910;28;20210;-70
2022/01/09 10:42:07;;;;;;;8.90;5.83;;;16.80;99.90;;;;;;5013354;28;20195;-70
2022/01/09 10:44:38;;;;;;;10.23;5.93;;;17.30;99.90;;;;;;5047646;28;20183;-70
2022/01/09 10:47:10;;;;;;;8.10;5.73;;;17.80;99.90;;;;;;5036421;28;20199;-70
2022/01/09 10:49:52;;;;;;;9.80;5.70;;;17.60;99.90;;;;;;5025925;28;20192;-70
2022/01/09 10:52:37;;;;;;;11.03;4.70;;;19.40;99.90;;;;;;5030014;28;20199;-70
2022/01/09 10:55:09;;;;;;;7.03;4.10;;;19.00;99.90;;;;;;5011839;28;20316;-70
2022/01/09 10:57:38;;;;;;;7.13;4.40;;;19.60;99.90;;;;;;5053577;28;20184;-70
2022/01/09 11:00:15;;;;;;;7.40;4.23;;;19.00;99.90;;;;;;5049476;28;20176;-68
2022/01/09 11:02:46;;;;;;;8.03;4.87;;;19.00;99.90;;;;;;5029904;28;20341;-70
2022/01/09 11:05:12;;;;;;;8.63;5.33;;;19.20;99.90;;;;;;5036130;28;20182;-70
2022/01/09 11:07:41;;;;;;;7.40;4.77;;;19.40;99.90;;;;;;5050782;28;20843;-70
2022/01/09 11:10:08;;;;;;;9.97;5.87;;;19.30;99.90;;;;;;5027766;28;20187;-70
2022/01/09 11:12:46;;;;;;;6.93;5.40;;;19.00;99.90;;;;;;5031998;28;20718;-67
2022/01/09 11:15:16;;;;;;;11.67;5.73;;;18.80;99.90;;;;;;5033347;28;20243;-67
2022/01/09 11:17:45;;;;;;;8.93;5.90;;;18.70;99.90;;;;;;5030682;28;20214;-68
2022/01/09 11:20:12;;;;;;;8.67;5.77;;;18.50;99.90;;;;;;5037570;28;20175;-70
2022/01/09 11:22:39;;;;;;;8.57;5.57;;;18.20;99.90;;;;;;5012724;28;20369;-69
2022/01/09 11:25:40;;;;;;;11.57;6.03;;;18.10;99.90;;;;;;5011259;28;20188;-70
2022/01/09 11:28:24;;;;;;;10.73;5.30;;;17.70;99.90;;;;;;5015987;28;20189;-70
2022/01/09 11:31:30;;;;;;;7.83;5.20;;;17.40;99.90;;;;;;5027662;28;20612;-70
2022/01/09 11:34:05;;;;;;;7.97;5.53;;;17.40;99.90;;;;;;5012429;28;20225;-70
2022/01/09 11:37:02;;;;;;;7.90;5.03;;;17.20;99.90;;;;;;5021959;28;20200;-70
2022/01/09 11:39:35;;;;;;;10.43;6.10;;;17.30;99.90;;;;;;5004799;28;20256;-70
2022/01/09 11:42:14;;;;;;;13.43;6.70;;;17.30;99.90;;;;;;5043859;28;20227;-70
2022/01/09 11:44:50;;;;;;;20.83;7.43;;;17.40;99.90;;;;;;5032632;28;20318;-70
2022/01/09 11:47:18;;;;;;;12.97;7.30;;;17.40;99.90;;;;;;5021835;28;20195;-70
2022/01/09 11:49:53;;;;;;;17.50;7.43;;;17.40;99.90;;;;;;5011403;28;20191;-70
2022/01/09 11:52:27;;;;;;;13.20;7.67;;;17.40;99.90;;;;;;5027666;28;20194;-70
2022/01/09 11:55:02;;;;;;;14.43;7.63;;;17.40;99.90;;;;;;5025466;28;20211;-70
2022/01/09 11:57:40;;;;;;;14.77;7.00;;;17.30;99.90;;;;;;5026454;28;20187;-70
2022/01/09 12:00:35;;;;;;;7.93;6.57;;;17.20;99.90;;;;;;5044201;28;20240;-70
2022/01/09 12:03:30;;;;;;;8.67;6.03;;;17.10;99.90;;;;;;5040067;28;20207;-70
2022/01/09 12:06:16;;;;;;;7.23;5.60;;;16.90;99.90;;;;;;5038386;28;20202;-70
2022/01/09 12:08:57;;;;;;;13.23;5.57;;;16.70;99.90;;;;;;5028286;28;20249;-70
2022/01/09 12:12:20;;;;;;;10.43;5.87;;;16.60;99.90;;;;;;5030051;28;20578;-70
2022/01/09 12:14:55;;;;;;;14.50;6.30;;;16.50;99.90;;;;;;5025117;28;20270;-70
2022/01/09 12:17:28;;;;;;;12.60;7.00;;;16.40;99.90;;;;;;5018325;28;20284;-70
2022/01/09 12:20:23;;;;;;;14.63;7.60;;;16.40;99.90;;;;;;5044977;28;20192;-70
2022/01/09 12:23:02;;;;;;;11.03;7.50;;;16.30;99.90;;;;;;5013881;28;20288;-70
2022/01/09 12:25:29;;;;;;;12.87;8.90;;;16.20;99.90;;;;;;5039293;28;20230;-70
2022/01/09 12:28:02;;;;;;;11.27;7.90;;;16.30;99.90;;;;;;5039465;28;20199;-70
2022/01/09 12:30:38;;;;;;;11.53;8.50;;;16.20;99.90;;;;;;5027339;28;20193;-70
2022/01/09 12:33:25;;;;;;;14.63;8.40;;;16.20;99.90;;;;;;5026945;28;20305;-70
2022/01/09 12:35:57;;;;;;;15.97;8.50;;;16.10;99.90;;;;;;5028537;28;20319;-70
2022/01/09 12:38:28;;;;;;;19.60;8.60;;;16.10;99.90;;;;;;5029420;28;20249;-70
2022/01/09 12:41:00;;;;;;;13.33;7.43;;;16.10;99.90;;;;;;5023035;28;20631;-70
2022/01/09 12:43:30;;;;;;;12.30;8.00;;;16.10;99.90;;;;;;5026940;28;20616;-70
2022/01/09 12:45:57;;;;;;;16.20;10.40;;;16.00;99.90;;;;;;5027138;28;20206;-70
2022/01/09 12:48:31;;;;;;;22.97;12.90;;;16.00;99.90;;;;;;5043898;28;20286;-70
2022/01/09 12:51:13;;;;;;;21.50;11.50;;;16.00;99.90;;;;;;5007189;28;20287;-70
2022/01/09 12:53:44;;;;;;;26.83;14.50;;;16.00;99.90;;;;;;5023837;28;20195;-70
2022/01/09 12:56:17;;;;;;;21.73;14.70;;;16.00;99.90;;;;;;5025144;28;20235;-70
2022/01/09 12:58:50;;;;;;;27.70;19.80;;;16.00;99.90;;;;;;5022727;28;20191;-70